KGNV/GNV METAR and TAF weather

Enter ICAO airport designator
Station Type Date Time Source
KGNV METAR 2019/10/23 13:53 UTC NOAA

KGNV 231353Z 02008KT 10SM CLR 18/08 A3016 RMK AO2 SLP212 T01780078


Station Type Date Time Source
KGNV Decoded METAR 2019/10/23 13:53 UTC NOAA

GAINESVILLE REGIONAL AIRPORT , FL, United States (KGNV) 29-42N 082-17W 45M
Oct 23, 2019 - 09:53 AM EDT / 2019.10.23 1353 UTC
Wind: from the NNE (020 degrees) at 9 MPH (8 KT):0
Visibility: 10 mile(s):0
Sky conditions: clear
Temperature: 64.0 F (17.8 C)
Dew Point: 46.0 F (7.8 C)
Relative Humidity: 51%
Pressure (altimeter): 30.16 in. Hg (1021 hPa)
ob: KGNV 231353Z 02008KT 10SM CLR 18/08 A3016 RMK AO2 SLP212 T01780078
cycle: 14

Station Type Date Time Source
KGNV TAF 2019/10/23 12:24 UTC NOAA

TAF KGNV 231122Z 2312/2412 35006KT P6SM BKN250
FM231500 03009KT P6SM SCT250
FM240000 04002KT P6SM BKN250
FM240900 03003KT P6SM SCT035

Example: see airport list